sensor_id;sensor_type;location;lat;lon;timestamp;temperature;humidity
59469;DHT22;45277;52.768;18.262;2023-07-20T00:00:22;14.10;99.90
59469;DHT22;45277;52.768;18.262;2023-07-20T00:02:13;14.10;99.90
59469;DHT22;45277;52.768;18.262;2023-07-20T00:03:44;14.00;99.90
59469;DHT22;45277;52.768;18.262;2023-07-20T00:05:16;13.90;99.90
59469;DHT22;45277;52.768;18.262;2023-07-20T00:06:52;13.90;99.90
59469;DHT22;45277;52.768;18.262;2023-07-20T00:08:23;13.90;99.90
59469;DHT22;45277;52.768;18.262;2023-07-20T00:09:55;13.90;99.90
59469;DHT22;45277;52.768;18.262;2023-07-20T00:11:27;13.80;99.90
59469;DHT22;45277;52.768;18.262;2023-07-20T00:12:58;13.80;99.90
59469;DHT22;45277;52.768;18.262;2023-07-20T00:14:30;13.80;99.90
59469;DHT22;45277;52.768;18.262;2023-07-20T00:16:02;13.90;99.90
59469;DHT22;45277;52.768;18.262;2023-07-20T00:17:34;13.80;99.90
59469;DHT22;45277;52.768;18.262;2023-07-20T00:19:05;13.80;99.90
59469;DHT22;45277;52.768;18.262;2023-07-20T00:20:37;13.80;99.90
59469;DHT22;45277;52.768;18.262;2023-07-20T00:22:09;13.80;99.90
59469;DHT22;45277;52.768;18.262;2023-07-20T00:23:40;13.80;99.90
59469;DHT22;45277;52.768;18.262;2023-07-20T00:25:12;13.70;99.90
59469;DHT22;45277;52.768;18.262;2023-07-20T00:26:43;13.70;99.90
59469;DHT22;45277;52.768;18.262;2023-07-20T00:28:15;13.70;99.90
59469;DHT22;45277;52.768;18.262;2023-07-20T00:29:46;13.70;99.90
59469;DHT22;45277;52.768;18.262;2023-07-20T00:31:17;13.70;99.90
59469;DHT22;45277;52.768;18.262;2023-07-20T00:32:49;13.70;99.90
59469;DHT22;45277;52.768;18.262;2023-07-20T00:34:20;13.70;99.90
59469;DHT22;45277;52.768;18.262;2023-07-20T00:35:51;13.70;99.90
59469;DHT22;45277;52.768;18.262;2023-07-20T00:37:23;13.70;99.90
59469;DHT22;45277;52.768;18.262;2023-07-20T00:38:54;13.70;99.90
59469;DHT22;45277;52.768;18.262;2023-07-20T00:40:25;13.70;99.90
59469;DHT22;45277;52.768;18.262;2023-07-20T00:41:57;13.70;99.90
59469;DHT22;45277;52.768;18.262;2023-07-20T00:43:28;13.70;99.90
59469;DHT22;45277;52.768;18.262;2023-07-20T00:45:00;13.80;99.90
59469;DHT22;45277;52.768;18.262;2023-07-20T00:46:31;13.80;99.90
59469;DHT22;45277;52.768;18.262;2023-07-20T00:48:04;13.90;99.90
59469;DHT22;45277;52.768;18.262;2023-07-20T00:49:37;14.00;99.90
59469;DHT22;45277;52.768;18.262;2023-07-20T00:51:10;14.00;99.90
59469;DHT22;45277;52.768;18.262;2023-07-20T00:52:41;14.00;99.90
59469;DHT22;45277;52.768;18.262;2023-07-20T00:54:13;14.10;99.90
59469;DHT22;45277;52.768;18.262;2023-07-20T00:55:45;14.10;99.90
59469;DHT22;45277;52.768;18.262;2023-07-20T00:57:17;14.10;99.90
59469;DHT22;45277;52.768;18.262;2023-07-20T00:58:49;14.10;99.90
59469;DHT22;45277;52.768;18.262;2023-07-20T01:00:21;14.10;99.90
59469;DHT22;45277;52.768;18.262;2023-07-20T01:01:52;14.10;99.90
59469;DHT22;45277;52.768;18.262;2023-07-20T01:03:23;14.10;99.90
59469;DHT22;45277;52.768;18.262;2023-07-20T01:04:55;14.10;99.90
59469;DHT22;45277;52.768;18.262;2023-07-20T01:08:37;14.00;99.90
59469;DHT22;45277;52.768;18.262;2023-07-20T01:10:12;14.00;99.90
59469;DHT22;45277;52.768;18.262;2023-07-20T01:13:37;14.10;99.90
59469;DHT22;45277;52.768;18.262;2023-07-20T01:15:09;14.30;99.90
59469;DHT22;45277;52.768;18.262;2023-07-20T01:16:41;14.40;99.90
59469;DHT22;45277;52.768;18.262;2023-07-20T01:18:12;14.40;99.90
59469;DHT22;45277;52.768;18.262;2023-07-20T01:19:44;14.40;99.90
59469;DHT22;45277;52.768;18.262;2023-07-20T01:21:31;14.50;99.90
59469;DHT22;45277;52.768;18.262;2023-07-20T01:27:00;14.60;99.90
59469;DHT22;45277;52.768;18.262;2023-07-20T01:30:59;14.80;99.90
59469;DHT22;45277;52.768;18.262;2023-07-20T01:32:33;14.80;99.90
59469;DHT22;45277;52.768;18.262;2023-07-20T01:34:07;14.80;99.90
59469;DHT22;45277;52.768;18.262;2023-07-20T01:35:41;14.80;99.90
59469;DHT22;45277;52.768;18.262;2023-07-20T01:37:16;14.80;99.90
59469;DHT22;45277;52.768;18.262;2023-07-20T01:38:48;14.80;99.90
59469;DHT22;45277;52.768;18.262;2023-07-20T01:40:22;14.80;99.90
59469;DHT22;45277;52.768;18.262;2023-07-20T01:41:55;14.80;99.90
59469;DHT22;45277;52.768;18.262;2023-07-20T01:43:27;14.80;99.90
59469;DHT22;45277;52.768;18.262;2023-07-20T01:44:58;14.80;99.90
59469;DHT22;45277;52.768;18.262;2023-07-20T01:46:29;14.80;99.90
59469;DHT22;45277;52.768;18.262;2023-07-20T01:48:01;14.80;99.90
59469;DHT22;45277;52.768;18.262;2023-07-20T01:49:32;14.90;99.90
59469;DHT22;45277;52.768;18.262;2023-07-20T01:51:04;14.90;99.90
59469;DHT22;45277;52.768;18.262;2023-07-20T01:52:35;15.00;99.90
59469;DHT22;45277;52.768;18.262;2023-07-20T01:54:06;15.00;99.90
59469;DHT22;45277;52.768;18.262;2023-07-20T01:55:38;15.00;99.90
59469;DHT22;45277;52.768;18.262;2023-07-20T01:57:09;15.10;99.90
59469;DHT22;45277;52.768;18.262;2023-07-20T01:58:41;15.10;99.90
59469;DHT22;45277;52.768;18.262;2023-07-20T02:00:12;15.10;99.90
59469;DHT22;45277;52.768;18.262;2023-07-20T02:01:44;15.00;99.90
59469;DHT22;45277;52.768;18.262;2023-07-20T02:03:15;15.10;99.90
59469;DHT22;45277;52.768;18.262;2023-07-20T02:04:46;15.10;99.90
59469;DHT22;45277;52.768;18.262;2023-07-20T02:06:18;15.10;99.90
59469;DHT22;45277;52.768;18.262;2023-07-20T02:07:49;15.10;99.90
59469;DHT22;45277;52.768;18.262;2023-07-20T02:09:20;15.10;99.90
59469;DHT22;45277;52.768;18.262;2023-07-20T02:10:52;15.20;99.90
59469;DHT22;45277;52.768;18.262;2023-07-20T02:12:23;15.20;99.90
59469;DHT22;45277;52.768;18.262;2023-07-20T02:13:55;15.20;99.90
59469;DHT22;45277;52.768;18.262;2023-07-20T02:15:26;15.20;99.90
59469;DHT22;45277;52.768;18.262;2023-07-20T02:16:58;15.20;99.90
59469;DHT22;45277;52.768;18.262;2023-07-20T02:18:31;15.20;99.90
59469;DHT22;45277;52.768;18.262;2023-07-20T02:20:02;15.30;99.90
59469;DHT22;45277;52.768;18.262;2023-07-20T02:21:34;15.20;99.90
59469;DHT22;45277;52.768;18.262;2023-07-20T02:23:05;15.20;99.90
59469;DHT22;45277;52.768;18.262;2023-07-20T02:24:36;15.10;99.90
59469;DHT22;45277;52.768;18.262;2023-07-20T02:26:08;15.10;99.90
59469;DHT22;45277;52.768;18.262;2023-07-20T02:27:39;15.10;99.90
59469;DHT22;45277;52.768;18.262;2023-07-20T02:29:10;15.10;99.90
59469;DHT22;45277;52.768;18.262;2023-07-20T02:30:44;15.10;99.90
59469;DHT22;45277;52.768;18.262;2023-07-20T02:32:16;15.00;99.90
59469;DHT22;45277;52.768;18.262;2023-07-20T02:33:47;15.00;99.90
59469;DHT22;45277;52.768;18.262;2023-07-20T02:35:21;15.00;99.90
59469;DHT22;45277;52.768;18.262;2023-07-20T02:36:53;15.00;99.90
59469;DHT22;45277;52.768;18.262;2023-07-20T02:38:26;15.00;99.90
59469;DHT22;45277;52.768;18.262;2023-07-20T02:39:58;14.90;99.90
59469;DHT22;45277;52.768;18.262;2023-07-20T02:41:33;15.00;99.90
59469;DHT22;45277;52.768;18.262;2023-07-20T02:43:04;14.90;99.90
59469;DHT22;45277;52.768;18.262;2023-07-20T02:44:36;14.90;99.90
59469;DHT22;45277;52.768;18.262;2023-07-20T02:46:07;14.90;99.90
59469;DHT22;45277;52.768;18.262;2023-07-20T02:47:38;14.80;99.90
59469;DHT22;45277;52.768;18.262;2023-07-20T02:49:10;14.80;99.90
59469;DHT22;45277;52.768;18.262;2023-07-20T02:50:43;14.80;99.90
59469;DHT22;45277;52.768;18.262;2023-07-20T02:52:14;14.90;99.90
59469;DHT22;45277;52.768;18.262;2023-07-20T02:53:46;14.90;99.90
59469;DHT22;45277;52.768;18.262;2023-07-20T02:55:17;14.90;99.90
59469;DHT22;45277;52.768;18.262;2023-07-20T02:56:48;14.90;99.90
59469;DHT22;45277;52.768;18.262;2023-07-20T02:58:20;14.90;99.90
59469;DHT22;45277;52.768;18.262;2023-07-20T02:59:51;14.90;99.90
59469;DHT22;45277;52.768;18.262;2023-07-20T03:01:22;15.00;99.90
59469;DHT22;45277;52.768;18.262;2023-07-20T03:02:54;15.00;99.90
59469;DHT22;45277;52.768;18.262;2023-07-20T03:04:26;15.10;99.90
59469;DHT22;45277;52.768;18.262;2023-07-20T03:05:58;15.10;99.90
59469;DHT22;45277;52.768;18.262;2023-07-20T03:07:30;15.20;99.90
59469;DHT22;45277;52.768;18.262;2023-07-20T03:09:02;15.20;99.90
59469;DHT22;45277;52.768;18.262;2023-07-20T03:10:38;15.20;99.90
59469;DHT22;45277;52.768;18.262;2023-07-20T03:12:09;15.20;99.90
59469;DHT22;45277;52.768;18.262;2023-07-20T03:13:42;15.20;99.90
59469;DHT22;45277;52.768;18.262;2023-07-20T03:15:13;15.20;99.90
59469;DHT22;45277;52.768;18.262;2023-07-20T03:16:45;15.20;99.90
59469;DHT22;45277;52.768;18.262;2023-07-20T03:18:16;15.20;99.90
59469;DHT22;45277;52.768;18.262;2023-07-20T03:19:47;15.20;99.90
59469;DHT22;45277;52.768;18.262;2023-07-20T03:21:19;15.20;99.90
59469;DHT22;45277;52.768;18.262;2023-07-20T03:22:50;15.20;99.90
59469;DHT22;45277;52.768;18.262;2023-07-20T03:24:21;15.20;99.90
59469;DHT22;45277;52.768;18.262;2023-07-20T03:25:54;15.10;99.90
59469;DHT22;45277;52.768;18.262;2023-07-20T03:27:26;15.10;99.90
59469;DHT22;45277;52.768;18.262;2023-07-20T03:28:57;15.10;99.90
59469;DHT22;45277;52.768;18.262;2023-07-20T03:30:29;15.20;99.90
59469;DHT22;45277;52.768;18.262;2023-07-20T03:32:00;15.10;99.90
59469;DHT22;45277;52.768;18.262;2023-07-20T03:33:32;15.10;99.90
59469;DHT22;45277;52.768;18.262;2023-07-20T03:35:04;15.10;99.90
59469;DHT22;45277;52.768;18.262;2023-07-20T03:36:35;15.10;99.90
59469;DHT22;45277;52.768;18.262;2023-07-20T03:38:06;15.10;99.90
59469;DHT22;45277;52.768;18.262;2023-07-20T03:39:38;15.10;99.90
59469;DHT22;45277;52.768;18.262;2023-07-20T03:41:09;15.10;99.90
59469;DHT22;45277;52.768;18.262;2023-07-20T03:42:42;15.10;99.90
59469;DHT22;45277;52.768;18.262;2023-07-20T03:44:14;15.10;99.90
59469;DHT22;45277;52.768;18.262;2023-07-20T03:45:45;15.10;99.90
59469;DHT22;45277;52.768;18.262;2023-07-20T03:47:16;15.10;99.90
59469;DHT22;45277;52.768;18.262;2023-07-20T03:48:48;15.10;99.90
59469;DHT22;45277;52.768;18.262;2023-07-20T03:50:19;15.10;99.90
59469;DHT22;45277;52.768;18.262;2023-07-20T03:51:51;15.10;99.90
59469;DHT22;45277;52.768;18.262;2023-07-20T03:53:22;15.10;99.90
59469;DHT22;45277;52.768;18.262;2023-07-20T03:54:53;15.20;99.90
59469;DHT22;45277;52.768;18.262;2023-07-20T03:56:25;15.20;99.90
59469;DHT22;45277;52.768;18.262;2023-07-20T03:57:56;15.20;99.90
59469;DHT22;45277;52.768;18.262;2023-07-20T03:59:28;15.20;99.90
59469;DHT22;45277;52.768;18.262;2023-07-20T04:00:59;15.30;99.90
59469;DHT22;45277;52.768;18.262;2023-07-20T04:02:30;15.20;99.90
59469;DHT22;45277;52.768;18.262;2023-07-20T04:04:05;15.20;99.90
59469;DHT22;45277;52.768;18.262;2023-07-20T04:05:37;15.30;99.90
59469;DHT22;45277;52.768;18.262;2023-07-20T04:07:08;15.30;99.90
59469;DHT22;45277;52.768;18.262;2023-07-20T04:08:39;15.20;99.90
59469;DHT22;45277;52.768;18.262;2023-07-20T04:10:11;15.30;99.90
59469;DHT22;45277;52.768;18.262;2023-07-20T04:11:42;15.30;99.90
59469;DHT22;45277;52.768;18.262;2023-07-20T04:13:14;15.30;99.90
59469;DHT22;45277;52.768;18.262;2023-07-20T04:14:45;15.30;99.90
59469;DHT22;45277;52.768;18.262;2023-07-20T04:16:16;15.40;99.90
59469;DHT22;45277;52.768;18.262;2023-07-20T04:17:48;15.30;99.90
59469;DHT22;45277;52.768;18.262;2023-07-20T04:19:19;15.30;99.90
59469;DHT22;45277;52.768;18.262;2023-07-20T04:20:51;15.30;99.90
59469;DHT22;45277;52.768;18.262;2023-07-20T04:22:22;15.40;99.90
59469;DHT22;45277;52.768;18.262;2023-07-20T04:23:53;15.30;99.90
59469;DHT22;45277;52.768;18.262;2023-07-20T04:25:25;15.40;99.90
59469;DHT22;45277;52.768;18.262;2023-07-20T04:26:56;15.40;99.90
59469;DHT22;45277;52.768;18.262;2023-07-20T04:28:28;15.40;99.90
59469;DHT22;45277;52.768;18.262;2023-07-20T04:29:59;15.40;99.90
59469;DHT22;45277;52.768;18.262;2023-07-20T04:31:31;15.40;99.90
59469;DHT22;45277;52.768;18.262;2023-07-20T04:33:04;15.40;99.90
59469;DHT22;45277;52.768;18.262;2023-07-20T04:34:35;15.50;99.90
59469;DHT22;45277;52.768;18.262;2023-07-20T04:36:08;15.40;99.90
59469;DHT22;45277;52.768;18.262;2023-07-20T04:37:40;15.40;99.90
59469;DHT22;45277;52.768;18.262;2023-07-20T04:39:16;15.40;99.90
59469;DHT22;45277;52.768;18.262;2023-07-20T04:40:49;15.40;99.90
59469;DHT22;45277;52.768;18.262;2023-07-20T04:42:20;15.40;99.90
59469;DHT22;45277;52.768;18.262;2023-07-20T04:43:52;15.40;99.90
59469;DHT22;45277;52.768;18.262;2023-07-20T04:45:23;15.40;99.90
59469;DHT22;45277;52.768;18.262;2023-07-20T04:46:55;15.40;99.90
59469;DHT22;45277;52.768;18.262;2023-07-20T04:48:27;15.40;99.90
59469;DHT22;45277;52.768;18.262;2023-07-20T04:49:58;15.50;99.90
59469;DHT22;45277;52.768;18.262;2023-07-20T04:51:29;15.50;99.90
59469;DHT22;45277;52.768;18.262;2023-07-20T04:53:02;15.60;99.90
59469;DHT22;45277;52.768;18.262;2023-07-20T04:54:33;15.50;99.90
59469;DHT22;45277;52.768;18.262;2023-07-20T04:56:04;15.60;99.90
59469;DHT22;45277;52.768;18.262;2023-07-20T04:57:36;15.50;99.90
59469;DHT22;45277;52.768;18.262;2023-07-20T04:59:07;15.50;99.90
59469;DHT22;45277;52.768;18.262;2023-07-20T05:00:38;15.50;99.90
59469;DHT22;45277;52.768;18.262;2023-07-20T05:02:10;15.50;99.90
59469;DHT22;45277;52.768;18.262;2023-07-20T05:03:41;15.50;99.90
59469;DHT22;45277;52.768;18.262;2023-07-20T05:05:12;15.50;99.90
59469;DHT22;45277;52.768;18.262;2023-07-20T05:06:44;15.50;99.90
59469;DHT22;45277;52.768;18.262;2023-07-20T05:08:16;15.50;99.90
59469;DHT22;45277;52.768;18.262;2023-07-20T05:09:47;15.50;99.90
59469;DHT22;45277;52.768;18.262;2023-07-20T05:11:19;15.50;99.90
59469;DHT22;45277;52.768;18.262;2023-07-20T05:12:50;15.50;99.90
59469;DHT22;45277;52.768;18.262;2023-07-20T05:14:22;15.50;99.90
59469;DHT22;45277;52.768;18.262;2023-07-20T05:15:53;15.50;99.90
59469;DHT22;45277;52.768;18.262;2023-07-20T05:17:25;15.60;99.90
59469;DHT22;45277;52.768;18.262;2023-07-20T05:18:56;15.60;99.90
59469;DHT22;45277;52.768;18.262;2023-07-20T05:20:28;15.70;99.90
59469;DHT22;45277;52.768;18.262;2023-07-20T05:22:00;15.80;99.90
59469;DHT22;45277;52.768;18.262;2023-07-20T05:23:31;15.90;99.90
59469;DHT22;45277;52.768;18.262;2023-07-20T05:25:03;15.90;99.90
59469;DHT22;45277;52.768;18.262;2023-07-20T05:26:34;16.00;99.90
59469;DHT22;45277;52.768;18.262;2023-07-20T05:28:06;16.10;99.90
59469;DHT22;45277;52.768;18.262;2023-07-20T05:29:37;16.10;99.90
59469;DHT22;45277;52.768;18.262;2023-07-20T05:31:09;16.20;99.90
59469;DHT22;45277;52.768;18.262;2023-07-20T05:32:40;16.20;99.90
59469;DHT22;45277;52.768;18.262;2023-07-20T05:34:11;16.30;99.90
59469;DHT22;45277;52.768;18.262;2023-07-20T05:35:43;16.40;99.90
59469;DHT22;45277;52.768;18.262;2023-07-20T05:37:14;16.50;99.90
59469;DHT22;45277;52.768;18.262;2023-07-20T05:38:45;16.70;99.90
59469;DHT22;45277;52.768;18.262;2023-07-20T05:40:17;16.80;99.90
59469;DHT22;45277;52.768;18.262;2023-07-20T05:41:49;17.00;99.90
59469;DHT22;45277;52.768;18.262;2023-07-20T05:43:21;17.10;99.90
59469;DHT22;45277;52.768;18.262;2023-07-20T05:44:52;17.30;99.90
59469;DHT22;45277;52.768;18.262;2023-07-20T05:46:24;17.40;99.90
59469;DHT22;45277;52.768;18.262;2023-07-20T05:47:56;17.50;99.90
59469;DHT22;45277;52.768;18.262;2023-07-20T05:49:27;17.70;99.90
59469;DHT22;45277;52.768;18.262;2023-07-20T05:50:59;17.70;99.90
59469;DHT22;45277;52.768;18.262;2023-07-20T05:52:30;17.80;99.90
59469;DHT22;45277;52.768;18.262;2023-07-20T05:54:02;17.80;99.90
59469;DHT22;45277;52.768;18.262;2023-07-20T05:55:33;17.80;99.90
59469;DHT22;45277;52.768;18.262;2023-07-20T05:57:05;17.70;99.90
59469;DHT22;45277;52.768;18.262;2023-07-20T05:58:37;17.60;99.90
59469;DHT22;45277;52.768;18.262;2023-07-20T06:00:08;17.60;99.90
59469;DHT22;45277;52.768;18.262;2023-07-20T06:01:40;17.60;99.90
59469;DHT22;45277;52.768;18.262;2023-07-20T06:03:12;17.60;99.90
59469;DHT22;45277;52.768;18.262;2023-07-20T06:04:43;17.60;99.90
59469;DHT22;45277;52.768;18.262;2023-07-20T06:06:15;17.60;99.90
59469;DHT22;45277;52.768;18.262;2023-07-20T06:07:47;17.70;99.90
59469;DHT22;45277;52.768;18.262;2023-07-20T06:09:18;17.80;99.90
59469;DHT22;45277;52.768;18.262;2023-07-20T06:10:50;17.90;99.90
59469;DHT22;45277;52.768;18.262;2023-07-20T06:12:24;18.00;99.90
59469;DHT22;45277;52.768;18.262;2023-07-20T06:13:56;18.30;99.90
59469;DHT22;45277;52.768;18.262;2023-07-20T06:15:31;18.30;99.90
59469;DHT22;45277;52.768;18.262;2023-07-20T06:17:02;18.40;99.90
59469;DHT22;45277;52.768;18.262;2023-07-20T06:18:33;18.50;99.90
59469;DHT22;45277;52.768;18.262;2023-07-20T06:20:05;18.50;99.90
59469;DHT22;45277;52.768;18.262;2023-07-20T06:21:38;18.60;99.90
59469;DHT22;45277;52.768;18.262;2023-07-20T06:23:10;18.60;99.90
59469;DHT22;45277;52.768;18.262;2023-07-20T06:24:42;18.60;99.90
59469;DHT22;45277;52.768;18.262;2023-07-20T06:26:13;18.50;99.90
59469;DHT22;45277;52.768;18.262;2023-07-20T06:27:44;18.60;99.90
59469;DHT22;45277;52.768;18.262;2023-07-20T06:29:16;18.70;99.90
59469;DHT22;45277;52.768;18.262;2023-07-20T06:30:47;18.80;99.90
59469;DHT22;45277;52.768;18.262;2023-07-20T06:32:18;19.00;99.90
59469;DHT22;45277;52.768;18.262;2023-07-20T06:33:50;19.20;99.90
59469;DHT22;45277;52.768;18.262;2023-07-20T06:35:21;19.40;99.90
59469;DHT22;45277;52.768;18.262;2023-07-20T06:36:53;19.60;99.90
59469;DHT22;45277;52.768;18.262;2023-07-20T06:38:24;19.80;99.90
59469;DHT22;45277;52.768;18.262;2023-07-20T06:39:56;20.00;99.90
59469;DHT22;45277;52.768;18.262;2023-07-20T06:41:27;20.20;99.90
59469;DHT22;45277;52.768;18.262;2023-07-20T06:42:58;20.30;99.90
59469;DHT22;45277;52.768;18.262;2023-07-20T06:44:30;20.30;99.90
59469;DHT22;45277;52.768;18.262;2023-07-20T06:46:01;20.10;99.90
59469;DHT22;45277;52.768;18.262;2023-07-20T06:47:33;19.90;99.90
59469;DHT22;45277;52.768;18.262;2023-07-20T06:49:06;19.90;99.90
59469;DHT22;45277;52.768;18.262;2023-07-20T06:50:38;19.70;99.90
59469;DHT22;45277;52.768;18.262;2023-07-20T06:52:10;19.40;99.90
59469;DHT22;45277;52.768;18.262;2023-07-20T06:53:41;19.20;99.90
59469;DHT22;45277;52.768;18.262;2023-07-20T06:55:13;19.00;99.90
59469;DHT22;45277;52.768;18.262;2023-07-20T06:56:44;18.90;99.90
59469;DHT22;45277;52.768;18.262;2023-07-20T06:58:17;18.80;99.90
59469;DHT22;45277;52.768;18.262;2023-07-20T06:59:49;18.70;99.90
59469;DHT22;45277;52.768;18.262;2023-07-20T07:01:21;18.70;99.90
59469;DHT22;45277;52.768;18.262;2023-07-20T07:02:53;18.60;99.90
59469;DHT22;45277;52.768;18.262;2023-07-20T07:04:24;18.60;99.90
59469;DHT22;45277;52.768;18.262;2023-07-20T07:05:56;18.60;99.90
59469;DHT22;45277;52.768;18.262;2023-07-20T07:07:28;18.70;99.90
59469;DHT22;45277;52.768;18.262;2023-07-20T07:08:59;18.70;99.90
59469;DHT22;45277;52.768;18.262;2023-07-20T07:10:31;18.80;99.90
59469;DHT22;45277;52.768;18.262;2023-07-20T07:12:03;18.90;99.90
59469;DHT22;45277;52.768;18.262;2023-07-20T07:13:35;19.10;99.90
59469;DHT22;45277;52.768;18.262;2023-07-20T07:15:07;19.30;99.90
59469;DHT22;45277;52.768;18.262;2023-07-20T07:16:39;19.60;99.90
59469;DHT22;45277;52.768;18.262;2023-07-20T07:18:11;19.80;99.90
59469;DHT22;45277;52.768;18.262;2023-07-20T07:19:42;19.90;99.90
59469;DHT22;45277;52.768;18.262;2023-07-20T07:21:14;19.90;99.90
59469;DHT22;45277;52.768;18.262;2023-07-20T07:22:45;20.00;99.90
59469;DHT22;45277;52.768;18.262;2023-07-20T07:24:17;20.00;99.90
59469;DHT22;45277;52.768;18.262;2023-07-20T07:25:49;20.10;99.90
59469;DHT22;45277;52.768;18.262;2023-07-20T07:27:21;20.10;99.90
59469;DHT22;45277;52.768;18.262;2023-07-20T07:28:52;20.00;99.90
59469;DHT22;45277;52.768;18.262;2023-07-20T07:30:24;20.00;99.90
59469;DHT22;45277;52.768;18.262;2023-07-20T07:31:55;20.00;99.90
59469;DHT22;45277;52.768;18.262;2023-07-20T07:33:27;20.00;99.90
59469;DHT22;45277;52.768;18.262;2023-07-20T07:34:58;20.10;99.90
59469;DHT22;45277;52.768;18.262;2023-07-20T07:36:30;20.10;99.90
59469;DHT22;45277;52.768;18.262;2023-07-20T07:38:02;20.20;99.90
59469;DHT22;45277;52.768;18.262;2023-07-20T07:39:33;20.20;99.90
59469;DHT22;45277;52.768;18.262;2023-07-20T07:41:04;20.40;99.90
59469;DHT22;45277;52.768;18.262;2023-07-20T07:42:36;20.60;99.90
59469;DHT22;45277;52.768;18.262;2023-07-20T07:44:08;20.70;99.90
59469;DHT22;45277;52.768;18.262;2023-07-20T07:45:39;20.90;99.90
59469;DHT22;45277;52.768;18.262;2023-07-20T07:47:11;20.90;99.90
59469;DHT22;45277;52.768;18.262;2023-07-20T07:48:43;20.90;99.90
59469;DHT22;45277;52.768;18.262;2023-07-20T07:50:14;20.90;99.90
59469;DHT22;45277;52.768;18.262;2023-07-20T07:51:46;20.70;99.90
59469;DHT22;45277;52.768;18.262;2023-07-20T07:53:17;20.60;99.90
59469;DHT22;45277;52.768;18.262;2023-07-20T07:54:49;20.50;99.90
59469;DHT22;45277;52.768;18.262;2023-07-20T07:56:21;20.30;99.90
59469;DHT22;45277;52.768;18.262;2023-07-20T07:57:55;20.00;99.90
59469;DHT22;45277;52.768;18.262;2023-07-20T07:59:26;19.90;99.90
59469;DHT22;45277;52.768;18.262;2023-07-20T08:00:58;19.70;99.90
59469;DHT22;45277;52.768;18.262;2023-07-20T08:02:29;19.60;99.90
59469;DHT22;45277;52.768;18.262;2023-07-20T08:04:00;19.60;99.90
59469;DHT22;45277;52.768;18.262;2023-07-20T08:05:33;19.50;99.90
59469;DHT22;45277;52.768;18.262;2023-07-20T08:07:04;19.50;99.90
59469;DHT22;45277;52.768;18.262;2023-07-20T08:08:36;19.40;99.90
59469;DHT22;45277;52.768;18.262;2023-07-20T08:10:08;19.60;99.90
59469;DHT22;45277;52.768;18.262;2023-07-20T08:11:40;19.80;99.90
59469;DHT22;45277;52.768;18.262;2023-07-20T08:13:11;20.20;99.90
59469;DHT22;45277;52.768;18.262;2023-07-20T08:14:43;20.60;99.90
59469;DHT22;45277;52.768;18.262;2023-07-20T08:16:14;21.00;99.90
59469;DHT22;45277;52.768;18.262;2023-07-20T08:17:45;21.40;99.90
59469;DHT22;45277;52.768;18.262;2023-07-20T08:19:17;21.60;99.90
59469;DHT22;45277;52.768;18.262;2023-07-20T08:20:48;21.60;99.90
59469;DHT22;45277;52.768;18.262;2023-07-20T08:22:20;21.50;90.00
59469;DHT22;45277;52.768;18.262;2023-07-20T08:23:51;21.20;96.30
59469;DHT22;45277;52.768;18.262;2023-07-20T08:25:23;20.90;93.40
59469;DHT22;45277;52.768;18.262;2023-07-20T08:26:54;20.60;76.90
59469;DHT22;45277;52.768;18.262;2023-07-20T08:28:26;20.40;74.80
59469;DHT22;45277;52.768;18.262;2023-07-20T08:29:57;20.30;66.30
59469;DHT22;45277;52.768;18.262;2023-07-20T08:31:29;20.40;77.50
59469;DHT22;45277;52.768;18.262;2023-07-20T08:33:00;20.60;91.80
59469;DHT22;45277;52.768;18.262;2023-07-20T08:34:32;20.80;99.90
59469;DHT22;45277;52.768;18.262;2023-07-20T08:36:03;20.80;80.10
59469;DHT22;45277;52.768;18.262;2023-07-20T08:37:35;20.80;65.60
59469;DHT22;45277;52.768;18.262;2023-07-20T08:39:07;20.90;66.30
59469;DHT22;45277;52.768;18.262;2023-07-20T08:40:41;20.90;59.80
59469;DHT22;45277;52.768;18.262;2023-07-20T08:42:14;21.00;66.50
59469;DHT22;45277;52.768;18.262;2023-07-20T08:43:46;21.10;76.60
59469;DHT22;45277;52.768;18.262;2023-07-20T08:45:19;21.20;58.70
59469;DHT22;45277;52.768;18.262;2023-07-20T08:46:51;21.30;53.30
59469;DHT22;45277;52.768;18.262;2023-07-20T08:48:24;21.20;45.10
59469;DHT22;45277;52.768;18.262;2023-07-20T08:49:57;21.00;56.40
59469;DHT22;45277;52.768;18.262;2023-07-20T08:51:30;21.10;90.30
59469;DHT22;45277;52.768;18.262;2023-07-20T08:53:02;21.30;60.80
59469;DHT22;45277;52.768;18.262;2023-07-20T08:54:34;21.50;53.20
59469;DHT22;45277;52.768;18.262;2023-07-20T08:56:08;21.70;42.00
59469;DHT22;45277;52.768;18.262;2023-07-20T08:57:44;21.70;36.50
59469;DHT22;45277;52.768;18.262;2023-07-20T08:59:17;21.80;42.40
59469;DHT22;45277;52.768;18.262;2023-07-20T09:00:50;22.00;40.30
59469;DHT22;45277;52.768;18.262;2023-07-20T09:02:25;22.10;29.20
59469;DHT22;45277;52.768;18.262;2023-07-20T09:03:57;21.80;12.90
59469;DHT22;45277;52.768;18.262;2023-07-20T09:05:29;21.50;19.30
59469;DHT22;45277;52.768;18.262;2023-07-20T09:07:02;21.40;34.10
59469;DHT22;45277;52.768;18.262;2023-07-20T09:08:33;21.30;32.60
59469;DHT22;45277;52.768;18.262;2023-07-20T09:10:05;21.30;22.70
59469;DHT22;45277;52.768;18.262;2023-07-20T09:11:37;21.20;10.20
59469;DHT22;45277;52.768;18.262;2023-07-20T09:13:08;21.40;31.10
59469;DHT22;45277;52.768;18.262;2023-07-20T09:14:45;21.70;29.40
59469;DHT22;45277;52.768;18.262;2023-07-20T09:16:16;21.90;18.10
59469;DHT22;45277;52.768;18.262;2023-07-20T09:17:50;22.10;11.50
59469;DHT22;45277;52.768;18.262;2023-07-20T09:19:22;22.00;9.90
59469;DHT22;45277;52.768;18.262;2023-07-20T09:20:58;22.10;14.60
59469;DHT22;45277;52.768;18.262;2023-07-20T09:22:31;22.20;11.50
59469;DHT22;45277;52.768;18.262;2023-07-20T09:24:03;22.10;11.20
59469;DHT22;45277;52.768;18.262;2023-07-20T09:25:36;22.20;1.80
59469;DHT22;45277;52.768;18.262;2023-07-20T09:27:09;22.20;5.30
59469;DHT22;45277;52.768;18.262;2023-07-20T09:28:55;22.20;15.70
59469;DHT22;45277;52.768;18.262;2023-07-20T09:30:26;22.20;1.60
59469;DHT22;45277;52.768;18.262;2023-07-20T09:32:05;22.10;3.70
59469;DHT22;45277;52.768;18.262;2023-07-20T09:33:39;22.30;1.00
59469;DHT22;45277;52.768;18.262;2023-07-20T09:35:17;22.40;1.00
59469;DHT22;45277;52.768;18.262;2023-07-20T09:36:49;22.50;1.00
59469;DHT22;45277;52.768;18.262;2023-07-20T09:38:20;22.50;1.00
59469;DHT22;45277;52.768;18.262;2023-07-20T09:39:52;22.40;1.00
59469;DHT22;45277;52.768;18.262;2023-07-20T09:41:24;22.40;1.00
59469;DHT22;45277;52.768;18.262;2023-07-20T09:42:59;22.20;1.00